• Join FlightAware (Why Join?)
  • Login
  • US Flag 
05:26AM EST


 

Airport Tracker/Info


-or-


 

Live Flight TrackerFlight Track Log ✈ DAL3799 ✈ 11-May-2013 ✈ KDTW - KGSP

Flight Track Log - Related Links

Times and Time Zones

All times are in EDT time to prevent confusion due to time zone crossing. See the DAL3799 flight status page for this flight to view local times or setup timezone preferences in your user account.

Time Position Orientation Groundspeed Altitude Reporting Facility
EDT Latitude Longitude Course Direction KTS MPH feet Rate Location/Type
03:52PM 42.2058 -83.3556 180° South 154 177 1,200  Level Cleveland Center
03:52PM 42.1933 -83.3578 188° South 151 174 2,000 2,580 Climbing Cleveland Center
03:53PM 42.1469 -83.3725 193° South 196 226 4,400 2,400 Climbing Cleveland Center
03:54PM 42.0739 -83.3833 186° South 258 297 6,900 2,280 Climbing Cleveland Center
03:55PM 41.7806 -83.2795 180° South  Level Estimated
03:55PM 42.0069 -83.3889 184° South 269 310 9,200  Level Cleveland Center
03:56PM 41.6726 -83.2612 180° South  Level Estimated
03:56PM 41.9194 -83.3822 177° South 310 357 10,900  Level Cleveland Center
03:57PM 41.5647 -83.2429 180° South  Level Estimated
03:57PM 41.8303 -83.3672 173° South 316 364 13,700  Level Cleveland Center
03:58PM 41.7408 -83.3550 174° South 321 369 15,800 1,800 Climbing Cleveland Center
03:59PM 41.6494 -83.3400 173° South 326 375 17,300 1,620 Climbing Cleveland Center
04:00PM 41.5558 -83.3386 179° South 332 382 19,100 1,680 Climbing Cleveland Center
04:01PM 41.4694 -83.3683 194° South 323 372 20,700 1,500 Climbing Cleveland Center
04:02PM 41.3850 -83.4144 202° Southwest 323 372 22,100 1,200 Climbing Cleveland Center
04:03PM 41.3003 -83.4633 203° Southwest 328 377 23,100 900 Climbing Cleveland Center
04:04PM 41.2325 -83.5044 205° Southwest 333 383 23,900 780 Climbing Cleveland Center
04:06PM 41.0175 -83.6289 204° Southwest 354 407 25,700 660 Climbing Indianapolis Center
04:07PM 40.9222 -83.6817 203° Southwest 368 423 26,200 480 Climbing Indianapolis Center
04:08PM 40.8272 -83.7381 204° Southwest 372 428 26,700 480 Climbing Indianapolis Center
04:09PM 40.7303 -83.7928 203° Southwest 375 432 27,200 480 Climbing Indianapolis Center
04:10PM 40.6331 -83.8483 203° Southwest 378 435 27,700 360 Climbing Indianapolis Center
04:11PM 40.5353 -83.9028 203° Southwest 379 436 28,000 120 Climbing Indianapolis Center
04:12PM 40.4347 -83.9600 203° Southwest 390 449 28,000  Level Indianapolis Center
04:13PM 40.3314 -84.0189 203° Southwest 399 459 28,000  Level Indianapolis Center
04:14PM 40.1994 -84.0564 192° South 421 484 28,000  Level Indianapolis Center
04:15PM 40.0842 -84.0778 188° South 419 482 28,000  Level Indianapolis Center
04:16PM 39.9681 -84.0969 187° South 420 483 28,000  Level Indianapolis Center
04:17PM 39.8503 -84.1169 187° South 424 488 28,000  Level Indianapolis Center
04:18PM 39.7331 -84.1361 187° South 424 488 28,000  Level Indianapolis Center
04:19PM 39.6144 -84.1558 187° South 426 490 28,000  Level Indianapolis Center
04:20PM 39.4958 -84.1647 183° South 429 494 28,000  Level Indianapolis Center
04:21PM 39.3808 -84.1100 160° South 438 504 28,000  Level Indianapolis Center
04:23PM 39.2631 -84.0531 159° South 448 516 28,000  Level Indianapolis Center
04:24PM 39.1453 -83.9961 159° South 449 517 28,000  Level Indianapolis Center
04:25PM 39.0078 -83.9297 159° South 450 518 28,000  Level Indianapolis Center
04:26PM 38.8903 -83.8722 159° South 449 517 28,000  Level Indianapolis Center
04:27PM 38.7731 -83.8167 160° South 448 516 28,000  Level Indianapolis Center
04:28PM 38.6572 -83.7625 160° South 442 509 28,000  Level Indianapolis Center
04:29PM 38.5383 -83.7033 159° South 443 510 28,000  Level Indianapolis Center
04:30PM 38.4233 -83.6494 160° South 441 507 28,000  Level Indianapolis Center
04:31PM 38.3081 -83.5925 159° South 442 509 28,000  Level Indianapolis Center
04:32PM 38.1931 -83.5375 159° South 440 506 28,000  Level Indianapolis Center
04:33PM 38.0769 -83.4836 160° South 443 510 28,000  Level Indianapolis Center
04:34PM 37.9614 -83.4292 160° South 442 509 28,000  Level Indianapolis Center
04:35PM 37.8456 -83.3756 160° South 443 510 28,000  Level Indianapolis Center
04:36PM 37.7111 -83.3122 160° South 443 510 28,000  Level Indianapolis Center
04:37PM 37.6014 -83.2603 159° South 425 489 28,000  Level Indianapolis Center
04:38PM 37.4961 -83.2114 160° South 406 467 28,000 -120 Level Indianapolis Center
04:39PM 37.3897 -83.1614 160° South 406 467 27,800 -660 Descending Indianapolis Center
04:40PM 37.2831 -83.1131 160° South 407 468 26,700 -1,080 Descending Indianapolis Center
04:41PM 37.1756 -83.0639 160° South 410 472 25,700 -1,020 Descending Indianapolis Center
04:42PM 37.0675 -83.0147 160° South 411 473 24,700 -840 Descending Indianapolis Center
04:43PM 36.9619 -82.9883 169° South 396 456 24,000 -660 Descending Indianapolis Center
04:44PM 36.8692 -82.9958 184° South 382 440 23,600 -540 Descending Atlanta Center
04:45PM 36.7650 -82.9892 177° South 382 440 23,100 -600 Descending Atlanta Center
04:46PM 36.6606 -82.9647 169° South 382 440 22,500 -900 Descending Atlanta Center
04:47PM 36.5642 -82.9092 155° Southeast 377 434 21,400 -780 Descending Atlanta Center
04:48PM 36.4675 -82.8511 154° Southeast 389 448 21,000 -240 Descending Atlanta Center
04:49PM 36.3753 -82.7933 153° Southeast 382 440 21,000  Level Atlanta Center
04:50PM 36.2828 -82.7406 155° Southeast 375 432 21,000  Level Atlanta Center
04:51PM 36.1800 -82.6806 155° Southeast 380 437 21,000  Level Atlanta Center
04:52PM 36.0772 -82.6206 155° Southeast 408 470 21,000  Level Atlanta Center
04:53PM 35.9742 -82.5481 150° Southeast 420 483 21,000  Level Atlanta Center
04:54PM 35.8814 -82.4781 149° Southeast 410 472 21,000  Level Atlanta Center
04:55PM 35.8072 -82.3794 133° Southeast 396 456 21,000 -180 Level Atlanta Center
04:56PM 35.7244 -82.2892 138° Southeast 390 449 20,700 -1,680 Descending Atlanta Center
04:57PM 35.6242 -82.2758 174° South 356 410 17,700 -3,120 Descending Atlanta Center
04:58PM 35.5242 -82.2756 180° South 361 415 14,500 -3,000 Descending Atlanta Center
04:59PM 35.4322 -82.2725 178° South 361 415 11,800 -2,340 Descending Atlanta Center
05:00PM 35.3467 -82.2667 177° South 344 396 9,900 -1,980 Descending Atlanta Center
05:01PM 35.2714 -82.2606 176° South 299 344 7,900 -1,800 Descending Atlanta Center
05:02PM 35.1958 -82.2342 164° South 275 316 6,400 -1,440 Descending Atlanta Center
05:03PM 35.1286 -82.1975 156° South 275 316 5,100 -1,320 Descending Atlanta Center